createdAt,value
2018-06-17T00:00:02.922Z,12.9
2018-06-17T00:15:03.356Z,12.9
2018-06-17T00:30:02.762Z,12.9
2018-06-17T00:45:03.152Z,12.9
2018-06-17T01:00:02.537Z,12.9
2018-06-17T01:15:02.872Z,12.9
2018-06-17T01:30:02.333Z,12.9
2018-06-17T01:45:02.691Z,12.9
2018-06-17T02:00:03.018Z,12.9
2018-06-17T02:15:02.384Z,12.9
2018-06-17T02:30:03.018Z,12.9
2018-06-17T02:45:02.399Z,12.9
2018-06-17T03:00:02.756Z,12.9
2018-06-17T03:15:03.253Z,12.8
2018-06-17T03:30:02.679Z,12.8
2018-06-17T03:45:03.012Z,12.8
2018-06-17T04:00:02.407Z,12.8
2018-06-17T04:15:02.705Z,12.8
2018-06-17T04:30:03.135Z,12.8
2018-06-17T04:45:02.503Z,12.8
2018-06-17T05:00:02.817Z,12.8
2018-06-17T05:15:02.287Z,12.8
2018-06-17T05:30:02.704Z,12.8
2018-06-17T05:45:02.997Z,12.8
2018-06-17T06:00:02.379Z,12.8
2018-06-17T06:15:02.806Z,12.8
2018-06-17T06:30:03.299Z,12.9
2018-06-17T06:45:02.711Z,12.9
2018-06-17T07:00:02.320Z,12.9
2018-06-17T07:15:02.636Z,12.9
2018-06-17T07:30:03.081Z,13
2018-06-17T07:45:02.409Z,13.1
2018-06-17T08:00:02.798Z,13.1
2018-06-17T08:15:03.112Z,13.2
2018-06-17T08:30:02.594Z,13.2
2018-06-17T08:45:02.913Z,13.3
2018-06-17T09:00:03.338Z,13.4
2018-06-17T09:15:02.714Z,13.4
2018-06-17T09:30:03.137Z,13.5
2018-06-17T09:45:02.475Z,13.6
2018-06-17T10:00:02.801Z,13.7
2018-06-17T10:15:03.157Z,13.8
2018-06-17T10:30:02.568Z,13.8
2018-06-17T10:45:02.906Z,13.9
2018-06-17T11:00:03.307Z,14
2018-06-17T11:15:02.718Z,14.1
2018-06-17T11:30:03.148Z,14.2
2018-06-17T11:45:02.481Z,14.2
2018-06-17T12:00:02.873Z,14.2
2018-06-17T12:15:03.249Z,14.3
2018-06-17T12:30:02.703Z,14.4
2018-06-17T12:45:03.016Z,14.4
2018-06-17T13:00:02.399Z,14.5
2018-06-17T13:15:02.718Z,14.6
2018-06-17T13:30:03.160Z,14.6
2018-06-17T13:45:02.492Z,14.5
2018-06-17T14:00:02.869Z,14.6
2018-06-17T14:15:03.233Z,14.6
2018-06-17T14:30:02.702Z,14.6
2018-06-17T14:45:03.028Z,14.6
2018-06-17T15:00:02.391Z,14.6
2018-06-17T15:15:02.727Z,14.6
2018-06-17T15:30:03.161Z,14.6
2018-06-17T15:45:02.517Z,14.6
2018-06-17T16:00:02.876Z,14.6
2018-06-17T16:15:03.245Z,14.5
2018-06-17T16:30:02.704Z,14.4
2018-06-17T16:45:03.013Z,14.4
2018-06-17T17:00:02.388Z,14.4
2018-06-17T17:15:02.705Z,14.3
2018-06-17T17:30:03.174Z,14.2
2018-06-17T17:45:02.537Z,14.1
2018-06-17T18:00:02.875Z,14.1
2018-06-17T18:15:03.250Z,13.9
2018-06-17T18:30:02.697Z,13.9
2018-06-17T18:45:03.009Z,13.8
2018-06-17T19:00:02.369Z,13.8
2018-06-17T19:15:02.705Z,13.7
2018-06-17T19:30:03.137Z,13.6
2018-06-17T19:45:02.504Z,13.6
2018-06-17T20:00:02.814Z,13.6
2018-06-17T20:15:03.177Z,13.5
2018-06-17T20:30:02.629Z,13.5
2018-06-17T20:45:02.950Z,13.4
2018-06-17T21:00:02.326Z,13.4
2018-06-17T21:15:02.689Z,13.4
2018-06-17T21:30:03.098Z,13.4
2018-06-17T21:45:02.463Z,13.3
2018-06-17T22:00:02.837Z,13.3
2018-06-17T22:15:03.159Z,13.3
2018-06-17T22:30:02.575Z,13.3
2018-06-17T22:45:02.922Z,13.3
2018-06-17T23:00:03.324Z,13.3
2018-06-17T23:15:02.690Z,13.3
2018-06-17T23:30:03.146Z,13.3
2018-06-17T23:45:02.493Z,13.2
